EWG8NE EDDL-LGSM
Flight info
| Callsign | EWG8NE |
|---|---|
| Flight time | 2h 46m |
| Altitude | 37000 |
| Route | DODEN1T DODEN Y853 BOMBI DCT DETEV DCT DINKU DCT BESNI DCT LATLO DCT OBEDI DCT KFT DCT OLEZE DCT TEBLI DCT MEDUX UM867 KOGAT DCT ERANA DCT TSL UN130 MES UL609 PIPEN Y94 ORMOS |
| Aircraft | A320/M-SDE2E3FGIJ1RWXYZ/EB1 |
Departure
| Time | 2026-05-05 05:15 |
|---|---|
| Airport | Düsseldorf Airport (EDDL) |
Arrival
| Time | 2026-05-05 08:01 |
|---|---|
| Airport | Samos Airport (LGSM) |
| Time | Latitude | Longitude | Altitude | Speed | Heading |
|---|---|---|---|---|---|
| 2026-05-05 04:46 | 51.27563 | 6.75986 | 126 ft | 0 kts | 63° |
| 2026-05-05 05:08 | 51.27565 | 6.75991 | 130 ft | 2 kts | 63° |
| 2026-05-05 05:08 | 51.27582 | 6.76039 | 130 ft | 8 kts | 51° |
| 2026-05-05 05:08 | 51.27657 | 6.76041 | 126 ft | 15 kts | 0° |
| 2026-05-05 05:08 | 51.27772 | 6.76043 | 129 ft | 16 kts | 1° |
| 2026-05-05 05:09 | 51.27880 | 6.76046 | 127 ft | 14 kts | 1° |
| 2026-05-05 05:09 | 51.27968 | 6.76047 | 128 ft | 11 kts | 359° |
| 2026-05-05 05:09 | 51.28044 | 6.76049 | 126 ft | 13 kts | 0° |
| 2026-05-05 05:09 | 51.28130 | 6.76032 | 129 ft | 13 kts | 22° |
| 2026-05-05 05:10 | 51.28198 | 6.76165 | 128 ft | 19 kts | 53° |
| 2026-05-05 05:10 | 51.28290 | 6.76355 | 124 ft | 24 kts | 52° |
| 2026-05-05 05:10 | 51.28395 | 6.76576 | 124 ft | 24 kts | 52° |
| 2026-05-05 05:10 | 51.28489 | 6.76772 | 124 ft | 20 kts | 53° |
| 2026-05-05 05:11 | 51.28566 | 6.76935 | 127 ft | 18 kts | 53° |
| 2026-05-05 05:11 | 51.28650 | 6.77110 | 128 ft | 22 kts | 53° |
| 2026-05-05 05:11 | 51.28749 | 6.77320 | 128 ft | 26 kts | 53° |
| 2026-05-05 05:11 | 51.28860 | 6.77554 | 127 ft | 25 kts | 53° |
| 2026-05-05 05:12 | 51.28959 | 6.77762 | 127 ft | 22 kts | 53° |
| 2026-05-05 05:12 | 51.29052 | 6.77955 | 124 ft | 22 kts | 54° |
| 2026-05-05 05:12 | 51.29148 | 6.78158 | 134 ft | 23 kts | 53° |
| 2026-05-05 05:12 | 51.29242 | 6.78355 | 142 ft | 20 kts | 53° |
| 2026-05-05 05:13 | 51.29312 | 6.78504 | 149 ft | 15 kts | 52° |
| 2026-05-05 05:13 | 51.29393 | 6.78573 | 152 ft | 14 kts | 359° |
| 2026-05-05 05:13 | 51.29507 | 6.78559 | 152 ft | 15 kts | 355° |
| 2026-05-05 05:13 | 51.29533 | 6.78500 | 151 ft | 5 kts | 244° |
| 2026-05-05 05:14 | 51.29500 | 6.78429 | 149 ft | 23 kts | 233° |
| 2026-05-05 05:14 | 51.29245 | 6.77894 | 135 ft | 96 kts | 232° |
| 2026-05-05 05:14 | 51.28725 | 6.76802 | 127 ft | 149 kts | 232° |
| 2026-05-05 05:14 | 51.28053 | 6.75391 | 596 ft | 159 kts | 233° |
| 2026-05-05 05:15 | 51.27392 | 6.73976 | 1345 ft | 159 kts | 233° |
| 2026-05-05 05:15 | 51.26710 | 6.72506 | 1784 ft | 175 kts | 233° |
| 2026-05-05 05:15 | 51.25941 | 6.70847 | 2129 ft | 197 kts | 233° |
| 2026-05-05 05:15 | 51.25076 | 6.68990 | 2471 ft | 221 kts | 233° |
| 2026-05-05 05:16 | 51.24082 | 6.66954 | 2897 ft | 244 kts | 225° |
| 2026-05-05 05:16 | 51.22615 | 6.65541 | 3491 ft | 258 kts | 194° |
| 2026-05-05 05:16 | 51.20824 | 6.65520 | 4307 ft | 263 kts | 163° |
| 2026-05-05 05:16 | 51.19270 | 6.67030 | 5115 ft | 268 kts | 132° |
| 2026-05-05 05:17 | 51.18396 | 6.69661 | 5955 ft | 273 kts | 109° |
| 2026-05-05 05:17 | 51.17800 | 6.72558 | 6795 ft | 277 kts | 109° |
| 2026-05-05 05:17 | 51.17213 | 6.75496 | 7601 ft | 280 kts | 109° |
| 2026-05-05 05:17 | 51.16622 | 6.78470 | 8444 ft | 283 kts | 109° |
| 2026-05-05 05:18 | 51.16018 | 6.81478 | 9255 ft | 287 kts | 109° |
| 2026-05-05 05:18 | 51.15402 | 6.84515 | 10032 ft | 290 kts | 110° |
| 2026-05-05 05:18 | 51.14758 | 6.87656 | 10410 ft | 309 kts | 110° |
| 2026-05-05 05:18 | 51.14069 | 6.90983 | 10613 ft | 332 kts | 109° |
| 2026-05-05 05:19 | 51.13323 | 6.94569 | 10962 ft | 348 kts | 109° |
| 2026-05-05 05:19 | 51.12555 | 6.98264 | 11565 ft | 354 kts | 109° |
| 2026-05-05 05:19 | 51.11778 | 7.02016 | 12213 ft | 360 kts | 109° |
| 2026-05-05 05:19 | 51.10991 | 7.05823 | 12885 ft | 365 kts | 109° |
| 2026-05-05 05:20 | 51.10193 | 7.09677 | 13551 ft | 369 kts | 109° |
| 2026-05-05 05:20 | 51.09383 | 7.13577 | 14159 ft | 373 kts | 110° |
| 2026-05-05 05:20 | 51.08563 | 7.17513 | 14782 ft | 377 kts | 110° |
| 2026-05-05 05:20 | 51.07743 | 7.21434 | 15355 ft | 380 kts | 110° |
| 2026-05-05 05:21 | 51.06900 | 7.25440 | 15925 ft | 385 kts | 110° |
| 2026-05-05 05:21 | 51.06047 | 7.29499 | 16492 ft | 389 kts | 110° |
| 2026-05-05 05:21 | 51.05187 | 7.33587 | 17062 ft | 393 kts | 110° |
| 2026-05-05 05:21 | 51.04317 | 7.37724 | 17629 ft | 396 kts | 110° |
| 2026-05-05 05:22 | 51.03437 | 7.41894 | 18164 ft | 400 kts | 110° |
| 2026-05-05 05:22 | 51.02543 | 7.46109 | 18628 ft | 404 kts | 110° |
| 2026-05-05 05:22 | 51.01642 | 7.50353 | 19089 ft | 408 kts | 110° |
| 2026-05-05 05:22 | 51.00730 | 7.54638 | 19549 ft | 411 kts | 110° |
| 2026-05-05 05:23 | 50.99820 | 7.58899 | 19976 ft | 415 kts | 110° |
| 2026-05-05 05:23 | 50.98888 | 7.63257 | 20399 ft | 419 kts | 110° |
| 2026-05-05 05:23 | 50.97847 | 7.67590 | 20835 ft | 421 kts | 118° |
| 2026-05-05 05:23 | 50.96365 | 7.71588 | 21272 ft | 421 kts | 129° |
| 2026-05-05 05:24 | 50.94459 | 7.75099 | 21709 ft | 420 kts | 139° |
| 2026-05-05 05:24 | 50.92198 | 7.78030 | 22138 ft | 419 kts | 149° |
| 2026-05-05 05:24 | 50.89727 | 7.80493 | 22568 ft | 421 kts | 152° |
| 2026-05-05 05:24 | 50.87260 | 7.82912 | 22998 ft | 424 kts | 152° |
| 2026-05-05 05:25 | 50.84739 | 7.85384 | 23417 ft | 427 kts | 152° |
| 2026-05-05 05:25 | 50.82205 | 7.87870 | 23781 ft | 430 kts | 152° |
| 2026-05-05 05:25 | 50.79656 | 7.90370 | 24163 ft | 432 kts | 152° |
| 2026-05-05 05:25 | 50.77096 | 7.92876 | 24548 ft | 434 kts | 152° |
| 2026-05-05 05:26 | 50.74527 | 7.95391 | 24922 ft | 435 kts | 152° |
| 2026-05-05 05:26 | 50.71949 | 7.97912 | 25276 ft | 437 kts | 152° |
| 2026-05-05 05:26 | 50.69363 | 8.00436 | 25657 ft | 438 kts | 152° |
| 2026-05-05 05:26 | 50.66800 | 8.02929 | 26016 ft | 439 kts | 153° |
| 2026-05-05 05:27 | 50.64196 | 8.05455 | 26372 ft | 441 kts | 153° |
| 2026-05-05 05:27 | 50.61580 | 8.07992 | 26722 ft | 443 kts | 153° |
| 2026-05-05 05:27 | 50.56669 | 8.13993 | 27468 ft | 449 kts | 144° |
| 2026-05-05 05:28 | 50.54280 | 8.17147 | 27826 ft | 449 kts | 144° |
| 2026-05-05 05:28 | 50.51876 | 8.20302 | 28152 ft | 451 kts | 144° |
| 2026-05-05 05:28 | 50.49456 | 8.23465 | 28445 ft | 453 kts | 145° |
| 2026-05-05 05:28 | 50.47030 | 8.26628 | 28731 ft | 455 kts | 145° |
| 2026-05-05 05:29 | 50.44623 | 8.29760 | 29018 ft | 456 kts | 145° |
| 2026-05-05 05:29 | 50.42173 | 8.32945 | 29302 ft | 458 kts | 145° |
| 2026-05-05 05:29 | 50.39718 | 8.36135 | 29537 ft | 460 kts | 145° |
| 2026-05-05 05:29 | 50.37248 | 8.39342 | 29794 ft | 462 kts | 145° |
| 2026-05-05 05:30 | 50.34770 | 8.42558 | 30117 ft | 462 kts | 145° |
| 2026-05-05 05:30 | 50.32302 | 8.45766 | 30455 ft | 460 kts | 145° |
| 2026-05-05 05:30 | 50.30677 | 8.47879 | 30700 ft | 459 kts | 145° |
| 2026-05-05 05:30 | 50.27396 | 8.52131 | 31150 ft | 457 kts | 146° |
| 2026-05-05 05:31 | 50.24948 | 8.55292 | 31489 ft | 456 kts | 146° |
| 2026-05-05 05:31 | 50.22506 | 8.58440 | 31829 ft | 455 kts | 146° |
| 2026-05-05 05:31 | 50.20104 | 8.61533 | 32163 ft | 453 kts | 146° |
| 2026-05-05 05:31 | 50.17673 | 8.64660 | 32501 ft | 452 kts | 146° |
| 2026-05-05 05:32 | 50.15247 | 8.67776 | 32837 ft | 451 kts | 147° |
| 2026-05-05 05:32 | 50.12827 | 8.70878 | 33171 ft | 450 kts | 147° |
| 2026-05-05 05:32 | 50.10415 | 8.73963 | 33516 ft | 449 kts | 147° |
| 2026-05-05 05:32 | 50.08030 | 8.77103 | 33846 ft | 450 kts | 142° |
| 2026-05-05 05:33 | 50.05919 | 8.80726 | 34166 ft | 456 kts | 133° |
| 2026-05-05 05:33 | 50.04178 | 8.84895 | 34466 ft | 462 kts | 123° |
| 2026-05-05 05:33 | 50.02766 | 8.89406 | 34736 ft | 464 kts | 121° |
| 2026-05-05 05:33 | 50.01375 | 8.93918 | 35001 ft | 463 kts | 121° |
| 2026-05-05 05:34 | 49.99996 | 8.98357 | 35259 ft | 462 kts | 121° |
| 2026-05-05 05:34 | 49.98594 | 9.02838 | 35514 ft | 461 kts | 121° |
| 2026-05-05 05:34 | 49.97189 | 9.07307 | 35773 ft | 460 kts | 122° |
| 2026-05-05 05:34 | 49.95784 | 9.11762 | 35994 ft | 459 kts | 121° |
| 2026-05-05 05:35 | 49.94381 | 9.16214 | 36203 ft | 459 kts | 121° |
| 2026-05-05 05:35 | 49.92982 | 9.20660 | 36420 ft | 458 kts | 121° |
| 2026-05-05 05:35 | 49.91584 | 9.25098 | 36638 ft | 458 kts | 121° |
| 2026-05-05 05:35 | 49.90188 | 9.29534 | 36843 ft | 457 kts | 121° |
| 2026-05-05 05:36 | 49.87406 | 9.38340 | 36902 ft | 458 kts | 122° |
| 2026-05-05 05:36 | 49.84591 | 9.47182 | 36899 ft | 458 kts | 122° |
| 2026-05-05 05:37 | 49.81294 | 9.55464 | 36886 ft | 446 kts | 136° |
| 2026-05-05 05:37 | 49.76903 | 9.62124 | 36899 ft | 440 kts | 142° |
| 2026-05-05 05:38 | 49.72430 | 9.68595 | 36896 ft | 440 kts | 142° |
| 2026-05-05 05:38 | 49.67996 | 9.75018 | 36896 ft | 440 kts | 142° |
| 2026-05-05 05:39 | 49.63526 | 9.81475 | 36895 ft | 440 kts | 142° |
| 2026-05-05 05:39 | 49.59050 | 9.87922 | 36894 ft | 440 kts | 142° |
| 2026-05-05 05:40 | 49.55328 | 9.93266 | 36881 ft | 440 kts | 142° |
| 2026-05-05 05:40 | 49.50842 | 9.99685 | 36874 ft | 440 kts | 142° |
| 2026-05-05 05:41 | 49.45620 | 10.07123 | 36900 ft | 440 kts | 142° |
| 2026-05-05 05:41 | 49.41128 | 10.13514 | 36901 ft | 440 kts | 142° |
| 2026-05-05 05:42 | 49.37398 | 10.18824 | 36902 ft | 440 kts | 142° |
| 2026-05-05 05:42 | 49.32904 | 10.25199 | 36904 ft | 440 kts | 142° |
| 2026-05-05 05:43 | 49.27676 | 10.32589 | 36871 ft | 440 kts | 142° |
| 2026-05-05 05:43 | 49.23931 | 10.37854 | 36893 ft | 440 kts | 142° |
| 2026-05-05 05:44 | 49.19472 | 10.44301 | 36908 ft | 442 kts | 140° |
| 2026-05-05 05:44 | 49.15095 | 10.50898 | 36924 ft | 442 kts | 140° |
| 2026-05-05 05:45 | 49.10717 | 10.57482 | 36927 ft | 442 kts | 140° |
| 2026-05-05 05:45 | 49.06309 | 10.64015 | 36908 ft | 442 kts | 141° |
| 2026-05-05 05:46 | 49.01914 | 10.70480 | 36903 ft | 443 kts | 141° |
| 2026-05-05 05:46 | 48.97480 | 10.76995 | 36909 ft | 443 kts | 141° |
| 2026-05-05 05:47 | 48.93041 | 10.83498 | 36903 ft | 443 kts | 141° |
| 2026-05-05 05:47 | 48.88598 | 10.89987 | 36901 ft | 443 kts | 141° |
| 2026-05-05 05:48 | 48.84182 | 10.96432 | 36895 ft | 443 kts | 141° |
| 2026-05-05 05:48 | 48.79736 | 11.02912 | 36878 ft | 443 kts | 140° |
| 2026-05-05 05:49 | 48.75278 | 11.09388 | 36878 ft | 444 kts | 140° |
| 2026-05-05 05:49 | 48.70814 | 11.15858 | 36886 ft | 444 kts | 141° |
| 2026-05-05 05:50 | 48.66371 | 11.22267 | 36891 ft | 444 kts | 141° |
| 2026-05-05 05:50 | 48.61969 | 11.28831 | 36890 ft | 446 kts | 137° |
| 2026-05-05 05:51 | 48.57811 | 11.35808 | 36876 ft | 447 kts | 135° |
| 2026-05-05 05:51 | 48.53703 | 11.42874 | 36879 ft | 447 kts | 135° |
| 2026-05-05 05:52 | 48.49540 | 11.49845 | 36873 ft | 447 kts | 136° |
| 2026-05-05 05:52 | 48.45367 | 11.56706 | 36888 ft | 447 kts | 136° |
| 2026-05-05 05:53 | 48.41164 | 11.63602 | 36895 ft | 447 kts | 136° |
| 2026-05-05 05:53 | 48.36964 | 11.70495 | 36884 ft | 447 kts | 136° |
| 2026-05-05 05:54 | 48.32761 | 11.77390 | 36887 ft | 447 kts | 136° |
| 2026-05-05 05:54 | 48.28550 | 11.84277 | 36892 ft | 448 kts | 136° |
| 2026-05-05 05:55 | 48.24366 | 11.91113 | 36888 ft | 448 kts | 136° |
| 2026-05-05 05:55 | 48.20140 | 11.97974 | 36886 ft | 448 kts | 136° |
| 2026-05-05 05:56 | 48.15908 | 12.04827 | 36869 ft | 448 kts | 136° |
| 2026-05-05 05:56 | 48.11679 | 12.11676 | 36875 ft | 448 kts | 136° |
| 2026-05-05 05:57 | 48.07442 | 12.18517 | 36870 ft | 448 kts | 136° |
| 2026-05-05 05:57 | 48.03224 | 12.25297 | 36883 ft | 448 kts | 136° |
| 2026-05-05 05:58 | 47.98974 | 12.32107 | 36884 ft | 448 kts | 136° |
| 2026-05-05 05:58 | 47.94722 | 12.38917 | 36875 ft | 448 kts | 136° |
| 2026-05-05 05:59 | 47.90471 | 12.45718 | 36876 ft | 449 kts | 136° |
| 2026-05-05 05:59 | 47.86231 | 12.52457 | 36882 ft | 449 kts | 137° |
| 2026-05-05 06:00 | 47.81960 | 12.59223 | 36882 ft | 449 kts | 137° |
| 2026-05-05 06:00 | 47.77684 | 12.65987 | 36897 ft | 449 kts | 137° |
| 2026-05-05 06:01 | 47.73405 | 12.72742 | 36883 ft | 448 kts | 136° |
| 2026-05-05 06:01 | 47.69158 | 12.79442 | 36879 ft | 449 kts | 136° |
| 2026-05-05 06:02 | 47.64819 | 12.86103 | 36888 ft | 449 kts | 138° |
| 2026-05-05 06:02 | 47.60376 | 12.92614 | 36903 ft | 449 kts | 139° |
| 2026-05-05 06:03 | 47.55947 | 12.99049 | 36904 ft | 449 kts | 139° |
| 2026-05-05 06:03 | 47.51515 | 13.05555 | 36884 ft | 449 kts | 138° |
| 2026-05-05 06:04 | 47.47088 | 13.12089 | 36893 ft | 450 kts | 138° |
| 2026-05-05 06:04 | 47.42652 | 13.18609 | 36909 ft | 450 kts | 138° |
| 2026-05-05 06:05 | 47.38207 | 13.25110 | 36924 ft | 450 kts | 139° |
| 2026-05-05 06:05 | 47.33778 | 13.31549 | 36941 ft | 450 kts | 139° |
| 2026-05-05 06:06 | 47.29630 | 13.38499 | 36937 ft | 452 kts | 133° |
| 2026-05-05 06:06 | 47.25575 | 13.45588 | 36952 ft | 453 kts | 133° |
| 2026-05-05 06:07 | 47.21512 | 13.52680 | 36962 ft | 453 kts | 133° |
| 2026-05-05 06:07 | 47.17472 | 13.59697 | 36950 ft | 453 kts | 133° |
| 2026-05-05 06:08 | 47.13393 | 13.66755 | 36965 ft | 453 kts | 133° |
| 2026-05-05 06:08 | 47.09309 | 13.73808 | 36971 ft | 454 kts | 133° |
| 2026-05-05 06:09 | 47.05214 | 13.80866 | 36984 ft | 454 kts | 133° |
| 2026-05-05 06:09 | 47.01146 | 13.87863 | 36987 ft | 454 kts | 133° |
| 2026-05-05 06:10 | 46.97044 | 13.94897 | 36987 ft | 454 kts | 133° |
| 2026-05-05 06:10 | 46.92938 | 14.01933 | 36980 ft | 455 kts | 133° |
| 2026-05-05 06:11 | 46.88849 | 14.08901 | 36978 ft | 455 kts | 133° |
| 2026-05-05 06:11 | 46.84718 | 14.15920 | 36990 ft | 456 kts | 133° |
| 2026-05-05 06:12 | 46.80586 | 14.22939 | 36998 ft | 456 kts | 133° |
| 2026-05-05 06:12 | 46.76451 | 14.29952 | 37007 ft | 456 kts | 133° |
| 2026-05-05 06:13 | 46.72308 | 14.36950 | 37006 ft | 456 kts | 133° |
| 2026-05-05 06:13 | 46.68186 | 14.43890 | 37011 ft | 456 kts | 133° |
| 2026-05-05 06:14 | 46.64032 | 14.50861 | 37001 ft | 456 kts | 133° |
| 2026-05-05 06:14 | 46.59809 | 14.57739 | 37002 ft | 455 kts | 136° |
| 2026-05-05 06:15 | 46.55418 | 14.64366 | 37003 ft | 455 kts | 137° |
| 2026-05-05 06:15 | 46.50988 | 14.70928 | 37004 ft | 455 kts | 137° |
| 2026-05-05 06:16 | 46.46621 | 14.77486 | 37005 ft | 455 kts | 136° |
| 2026-05-05 06:16 | 46.42248 | 14.84110 | 36998 ft | 455 kts | 136° |
| 2026-05-05 06:17 | 46.37864 | 14.90731 | 36997 ft | 455 kts | 136° |
| 2026-05-05 06:17 | 46.33466 | 14.97335 | 36993 ft | 456 kts | 137° |
| 2026-05-05 06:18 | 46.29096 | 15.03893 | 36995 ft | 456 kts | 136° |
| 2026-05-05 06:18 | 46.24688 | 15.10488 | 36997 ft | 456 kts | 136° |
| 2026-05-05 06:19 | 46.20273 | 15.17058 | 37007 ft | 456 kts | 136° |
| 2026-05-05 06:19 | 46.15852 | 15.23623 | 37012 ft | 456 kts | 136° |
| 2026-05-05 06:20 | 46.11454 | 15.30142 | 37005 ft | 457 kts | 137° |
| 2026-05-05 06:20 | 46.07059 | 15.36758 | 37011 ft | 457 kts | 135° |
| 2026-05-05 06:21 | 46.02731 | 15.43472 | 37018 ft | 458 kts | 135° |
| 2026-05-05 06:21 | 45.98401 | 15.50194 | 37023 ft | 458 kts | 135° |
| 2026-05-05 06:22 | 45.94048 | 15.56874 | 37027 ft | 458 kts | 136° |
| 2026-05-05 06:22 | 45.89711 | 15.63489 | 37037 ft | 458 kts | 136° |
| 2026-05-05 06:23 | 45.85340 | 15.70146 | 37025 ft | 458 kts | 136° |
| 2026-05-05 06:23 | 45.80967 | 15.76808 | 37017 ft | 459 kts | 136° |
| 2026-05-05 06:24 | 45.76580 | 15.83454 | 37030 ft | 459 kts | 136° |
| 2026-05-05 06:24 | 45.72216 | 15.90038 | 37019 ft | 459 kts | 136° |
| 2026-05-05 06:25 | 45.67822 | 15.96676 | 37022 ft | 459 kts | 136° |
| 2026-05-05 06:25 | 45.63422 | 16.03302 | 37024 ft | 460 kts | 136° |
| 2026-05-05 06:26 | 45.59006 | 16.09915 | 37034 ft | 460 kts | 136° |
| 2026-05-05 06:26 | 45.54623 | 16.16482 | 37035 ft | 460 kts | 136° |
| 2026-05-05 06:27 | 45.47996 | 16.26397 | 37032 ft | 460 kts | 136° |
| 2026-05-05 06:28 | 45.43566 | 16.32992 | 37035 ft | 461 kts | 136° |
| 2026-05-05 06:28 | 45.39134 | 16.39580 | 37033 ft | 461 kts | 136° |
| 2026-05-05 06:29 | 45.34727 | 16.46115 | 37021 ft | 461 kts | 136° |
| 2026-05-05 06:29 | 45.30280 | 16.52682 | 37025 ft | 461 kts | 136° |
| 2026-05-05 06:30 | 45.25824 | 16.59250 | 37020 ft | 462 kts | 136° |
| 2026-05-05 06:30 | 45.21364 | 16.65813 | 37031 ft | 462 kts | 136° |
| 2026-05-05 06:31 | 45.16918 | 16.72310 | 37031 ft | 462 kts | 137° |
| 2026-05-05 06:31 | 45.12412 | 16.78804 | 37034 ft | 462 kts | 137° |
| 2026-05-05 06:32 | 45.07906 | 16.85302 | 37018 ft | 463 kts | 137° |
| 2026-05-05 06:32 | 45.03391 | 16.91811 | 37024 ft | 464 kts | 137° |
| 2026-05-05 06:33 | 44.98864 | 16.98310 | 37028 ft | 464 kts | 137° |
| 2026-05-05 06:33 | 44.94358 | 17.04765 | 37034 ft | 465 kts | 137° |
| 2026-05-05 06:34 | 44.89807 | 17.11253 | 37049 ft | 465 kts | 137° |
| 2026-05-05 06:34 | 44.85253 | 17.17745 | 37033 ft | 466 kts | 137° |
| 2026-05-05 06:35 | 44.80688 | 17.24249 | 37040 ft | 467 kts | 137° |
| 2026-05-05 06:35 | 44.76116 | 17.30741 | 37050 ft | 467 kts | 137° |
| 2026-05-05 06:36 | 44.71564 | 17.37185 | 37048 ft | 468 kts | 137° |
| 2026-05-05 06:36 | 44.66972 | 17.43663 | 37053 ft | 468 kts | 137° |
| 2026-05-05 06:37 | 44.62373 | 17.50137 | 37063 ft | 468 kts | 137° |
| 2026-05-05 06:37 | 44.57768 | 17.56614 | 37058 ft | 469 kts | 137° |
| 2026-05-05 06:38 | 44.53189 | 17.63036 | 37060 ft | 469 kts | 137° |
| 2026-05-05 06:38 | 44.48563 | 17.69509 | 37071 ft | 470 kts | 137° |
| 2026-05-05 06:39 | 44.43929 | 17.75978 | 37084 ft | 470 kts | 137° |
| 2026-05-05 06:39 | 44.39294 | 17.82435 | 37087 ft | 470 kts | 137° |
| 2026-05-05 06:40 | 44.34685 | 17.88837 | 37084 ft | 470 kts | 137° |
| 2026-05-05 06:40 | 44.30035 | 17.95276 | 37087 ft | 471 kts | 137° |
| 2026-05-05 06:41 | 44.25379 | 18.01715 | 37095 ft | 471 kts | 137° |
| 2026-05-05 06:41 | 44.20718 | 18.08155 | 37098 ft | 472 kts | 137° |
| 2026-05-05 06:42 | 44.16084 | 18.14527 | 37101 ft | 472 kts | 137° |
| 2026-05-05 06:42 | 44.11406 | 18.20940 | 37106 ft | 472 kts | 137° |
| 2026-05-05 06:43 | 44.06729 | 18.27349 | 37095 ft | 472 kts | 137° |
| 2026-05-05 06:43 | 44.02048 | 18.33753 | 37098 ft | 472 kts | 137° |
| 2026-05-05 06:44 | 43.97389 | 18.40107 | 37098 ft | 472 kts | 137° |
| 2026-05-05 06:44 | 43.92696 | 18.46491 | 37101 ft | 473 kts | 137° |
| 2026-05-05 06:45 | 43.87992 | 18.52863 | 37104 ft | 473 kts | 137° |
| 2026-05-05 06:45 | 43.83285 | 18.59230 | 37099 ft | 473 kts | 137° |
| 2026-05-05 06:46 | 43.78574 | 18.65603 | 37116 ft | 473 kts | 137° |
| 2026-05-05 06:46 | 43.73887 | 18.71920 | 37119 ft | 474 kts | 137° |
| 2026-05-05 06:47 | 43.69155 | 18.78283 | 37127 ft | 475 kts | 137° |
| 2026-05-05 06:47 | 43.64414 | 18.84642 | 37138 ft | 475 kts | 137° |
| 2026-05-05 06:48 | 43.59664 | 18.90992 | 37132 ft | 476 kts | 137° |
| 2026-05-05 06:48 | 43.54934 | 18.97302 | 37133 ft | 477 kts | 137° |
| 2026-05-05 06:49 | 43.50163 | 19.03658 | 37139 ft | 477 kts | 137° |
| 2026-05-05 06:49 | 43.45391 | 19.10010 | 37141 ft | 477 kts | 137° |
| 2026-05-05 06:50 | 43.40610 | 19.16358 | 37146 ft | 477 kts | 137° |
| 2026-05-05 06:50 | 43.35849 | 19.22640 | 37136 ft | 478 kts | 137° |
| 2026-05-05 06:51 | 43.31048 | 19.28965 | 37122 ft | 479 kts | 137° |
| 2026-05-05 06:51 | 43.26237 | 19.35294 | 37124 ft | 479 kts | 137° |
| 2026-05-05 06:52 | 43.21415 | 19.41626 | 37136 ft | 480 kts | 137° |
| 2026-05-05 06:52 | 43.16592 | 19.47953 | 37147 ft | 481 kts | 137° |
| 2026-05-05 06:53 | 43.11786 | 19.54244 | 37139 ft | 482 kts | 137° |
| 2026-05-05 06:53 | 43.06937 | 19.60576 | 37139 ft | 482 kts | 137° |
| 2026-05-05 06:54 | 43.02079 | 19.66894 | 37147 ft | 482 kts | 137° |
| 2026-05-05 06:54 | 42.97217 | 19.73205 | 37149 ft | 482 kts | 137° |
| 2026-05-05 06:55 | 42.92384 | 19.79469 | 37155 ft | 483 kts | 137° |
| 2026-05-05 06:55 | 42.87509 | 19.85776 | 37157 ft | 483 kts | 137° |
| 2026-05-05 06:56 | 42.82625 | 19.92069 | 37142 ft | 484 kts | 137° |
| 2026-05-05 06:56 | 42.77729 | 19.98361 | 37136 ft | 484 kts | 137° |
| 2026-05-05 06:57 | 42.73068 | 20.04969 | 37143 ft | 484 kts | 129° |
| 2026-05-05 06:57 | 42.68822 | 20.12004 | 37144 ft | 485 kts | 129° |
| 2026-05-05 06:58 | 42.64531 | 20.19074 | 37144 ft | 485 kts | 129° |
| 2026-05-05 06:58 | 42.60230 | 20.26143 | 37142 ft | 485 kts | 129° |
| 2026-05-05 06:59 | 42.55924 | 20.33220 | 37140 ft | 487 kts | 129° |
| 2026-05-05 06:59 | 42.51634 | 20.40252 | 37145 ft | 488 kts | 129° |
| 2026-05-05 07:00 | 42.47301 | 20.47323 | 37165 ft | 488 kts | 129° |
| 2026-05-05 07:00 | 42.42960 | 20.54392 | 37175 ft | 488 kts | 129° |
| 2026-05-05 07:01 | 42.38626 | 20.61451 | 37176 ft | 487 kts | 129° |
| 2026-05-05 07:01 | 42.34286 | 20.68483 | 37175 ft | 487 kts | 129° |
| 2026-05-05 07:02 | 42.29968 | 20.75461 | 37165 ft | 487 kts | 129° |
| 2026-05-05 07:02 | 42.25619 | 20.82485 | 37176 ft | 488 kts | 129° |
| 2026-05-05 07:03 | 42.21262 | 20.89497 | 37177 ft | 487 kts | 129° |
| 2026-05-05 07:03 | 42.16905 | 20.96485 | 37179 ft | 487 kts | 129° |
| 2026-05-05 07:04 | 42.12552 | 21.03468 | 37175 ft | 486 kts | 129° |
| 2026-05-05 07:04 | 42.07831 | 21.09907 | 37173 ft | 487 kts | 136° |
| 2026-05-05 07:05 | 42.02909 | 21.16154 | 37185 ft | 487 kts | 136° |
| 2026-05-05 07:05 | 41.97988 | 21.22395 | 37177 ft | 486 kts | 136° |
| 2026-05-05 07:06 | 41.93065 | 21.28627 | 37172 ft | 486 kts | 136° |
| 2026-05-05 07:06 | 41.88172 | 21.34810 | 37171 ft | 486 kts | 136° |
| 2026-05-05 07:07 | 41.83247 | 21.41023 | 37175 ft | 486 kts | 136° |
| 2026-05-05 07:07 | 41.78308 | 21.47218 | 37169 ft | 486 kts | 136° |
| 2026-05-05 07:08 | 41.73369 | 21.53405 | 37159 ft | 487 kts | 136° |
| 2026-05-05 07:08 | 41.68425 | 21.59596 | 37159 ft | 487 kts | 136° |
| 2026-05-05 07:09 | 41.63506 | 21.65744 | 37159 ft | 487 kts | 136° |
| 2026-05-05 07:09 | 41.58547 | 21.71914 | 37162 ft | 487 kts | 136° |
| 2026-05-05 07:10 | 41.53580 | 21.78082 | 37167 ft | 488 kts | 136° |
| 2026-05-05 07:10 | 41.48614 | 21.84237 | 37171 ft | 487 kts | 136° |
| 2026-05-05 07:11 | 41.43683 | 21.90341 | 37172 ft | 487 kts | 136° |
| 2026-05-05 07:11 | 41.38719 | 21.96477 | 37167 ft | 487 kts | 136° |
| 2026-05-05 07:12 | 41.33754 | 22.02601 | 37163 ft | 487 kts | 136° |
| 2026-05-05 07:12 | 41.28788 | 22.08716 | 37160 ft | 487 kts | 136° |
| 2026-05-05 07:13 | 41.23844 | 22.14769 | 37159 ft | 486 kts | 136° |
| 2026-05-05 07:13 | 41.18867 | 22.20854 | 37149 ft | 486 kts | 136° |
| 2026-05-05 07:14 | 41.13842 | 22.26846 | 37139 ft | 485 kts | 139° |
| 2026-05-05 07:14 | 41.08592 | 22.32494 | 37145 ft | 486 kts | 141° |
| 2026-05-05 07:15 | 41.03298 | 22.37985 | 37129 ft | 486 kts | 141° |
| 2026-05-05 07:15 | 40.98014 | 22.43574 | 37125 ft | 486 kts | 140° |
| 2026-05-05 07:16 | 40.92770 | 22.49220 | 37133 ft | 486 kts | 140° |
| 2026-05-05 07:16 | 40.87518 | 22.54861 | 37131 ft | 486 kts | 140° |
| 2026-05-05 07:17 | 40.82256 | 22.60470 | 37124 ft | 486 kts | 141° |
| 2026-05-05 07:17 | 40.77022 | 22.66037 | 37125 ft | 486 kts | 141° |
| 2026-05-05 07:18 | 40.71749 | 22.71631 | 37116 ft | 486 kts | 141° |
| 2026-05-05 07:18 | 40.66470 | 22.77217 | 37111 ft | 487 kts | 141° |
| 2026-05-05 07:19 | 40.61184 | 22.82785 | 37128 ft | 487 kts | 141° |
| 2026-05-05 07:19 | 40.55936 | 22.88317 | 37123 ft | 487 kts | 141° |
| 2026-05-05 07:20 | 40.50654 | 22.93883 | 37122 ft | 487 kts | 141° |
| 2026-05-05 07:20 | 40.45421 | 22.99514 | 37121 ft | 486 kts | 135° |
| 2026-05-05 07:21 | 40.40748 | 23.05911 | 37116 ft | 485 kts | 132° |
| 2026-05-05 07:21 | 40.36146 | 23.12306 | 37133 ft | 485 kts | 132° |
| 2026-05-05 07:22 | 40.31497 | 23.18725 | 37122 ft | 485 kts | 132° |
| 2026-05-05 07:22 | 40.26845 | 23.25123 | 37110 ft | 485 kts | 132° |
| 2026-05-05 07:23 | 40.22195 | 23.31515 | 37108 ft | 485 kts | 132° |
| 2026-05-05 07:23 | 40.17542 | 23.37896 | 37088 ft | 485 kts | 133° |
| 2026-05-05 07:24 | 40.12911 | 23.44224 | 37102 ft | 485 kts | 133° |
| 2026-05-05 07:24 | 40.08245 | 23.50593 | 37096 ft | 485 kts | 133° |
| 2026-05-05 07:25 | 40.03573 | 23.56960 | 37091 ft | 485 kts | 133° |
| 2026-05-05 07:25 | 39.98896 | 23.63313 | 37089 ft | 485 kts | 133° |
| 2026-05-05 07:26 | 39.94249 | 23.69618 | 37089 ft | 486 kts | 133° |
| 2026-05-05 07:26 | 39.89564 | 23.75955 | 37116 ft | 486 kts | 133° |
| 2026-05-05 07:27 | 39.84868 | 23.82286 | 37100 ft | 486 kts | 133° |
| 2026-05-05 07:27 | 39.80171 | 23.88607 | 37098 ft | 486 kts | 133° |
| 2026-05-05 07:28 | 39.75509 | 23.94893 | 37098 ft | 486 kts | 133° |
| 2026-05-05 07:28 | 39.70814 | 24.01207 | 37089 ft | 486 kts | 133° |
| 2026-05-05 07:29 | 39.66111 | 24.07503 | 37110 ft | 486 kts | 133° |
| 2026-05-05 07:29 | 39.61400 | 24.13790 | 37097 ft | 486 kts | 133° |
| 2026-05-05 07:30 | 39.56721 | 24.20028 | 37086 ft | 486 kts | 133° |
| 2026-05-05 07:30 | 39.49647 | 24.29446 | 37086 ft | 486 kts | 133° |
| 2026-05-05 07:31 | 39.44923 | 24.35714 | 37087 ft | 486 kts | 133° |
| 2026-05-05 07:31 | 39.40194 | 24.41967 | 37101 ft | 486 kts | 133° |
| 2026-05-05 07:32 | 39.35498 | 24.48166 | 37100 ft | 486 kts | 133° |
| 2026-05-05 07:32 | 39.30788 | 24.54406 | 37096 ft | 485 kts | 133° |
| 2026-05-05 07:33 | 39.26108 | 24.60688 | 37089 ft | 485 kts | 133° |
| 2026-05-05 07:33 | 39.21428 | 24.66968 | 37089 ft | 486 kts | 133° |
| 2026-05-05 07:34 | 39.16731 | 24.73227 | 37094 ft | 486 kts | 133° |
| 2026-05-05 07:34 | 39.12049 | 24.79426 | 37094 ft | 486 kts | 133° |
| 2026-05-05 07:35 | 39.07322 | 24.85650 | 37097 ft | 486 kts | 134° |
| 2026-05-05 07:35 | 39.02557 | 24.91829 | 37101 ft | 487 kts | 134° |
| 2026-05-05 07:36 | 38.97776 | 24.97998 | 37088 ft | 487 kts | 134° |
| 2026-05-05 07:36 | 38.93025 | 25.04128 | 37110 ft | 488 kts | 134° |
| 2026-05-05 07:37 | 38.88239 | 25.10294 | 37110 ft | 487 kts | 134° |
| 2026-05-05 07:37 | 38.83453 | 25.16451 | 37109 ft | 487 kts | 134° |
| 2026-05-05 07:38 | 38.78677 | 25.22602 | 37111 ft | 487 kts | 134° |
| 2026-05-05 07:38 | 38.73896 | 25.28744 | 37110 ft | 487 kts | 134° |
| 2026-05-05 07:39 | 38.69137 | 25.34824 | 37117 ft | 487 kts | 134° |
| 2026-05-05 07:39 | 38.64342 | 25.40943 | 37111 ft | 487 kts | 134° |
| 2026-05-05 07:40 | 38.59544 | 25.47060 | 36889 ft | 487 kts | 134° |
| 2026-05-05 07:40 | 38.57144 | 25.50113 | 36630 ft | 487 kts | 134° |
| 2026-05-05 07:40 | 38.54743 | 25.53164 | 36373 ft | 487 kts | 134° |
| 2026-05-05 07:41 | 38.52341 | 25.56217 | 36118 ft | 487 kts | 134° |
| 2026-05-05 07:41 | 38.49968 | 25.59232 | 35871 ft | 488 kts | 134° |
| 2026-05-05 07:41 | 38.47560 | 25.62286 | 35621 ft | 488 kts | 134° |
| 2026-05-05 07:41 | 38.45147 | 25.65341 | 35375 ft | 488 kts | 134° |
| 2026-05-05 07:42 | 38.42726 | 25.68404 | 34424 ft | 495 kts | 134° |
| 2026-05-05 07:42 | 38.40264 | 25.71514 | 33372 ft | 500 kts | 135° |
| 2026-05-05 07:42 | 38.37781 | 25.74645 | 32389 ft | 503 kts | 135° |
| 2026-05-05 07:42 | 38.35302 | 25.77766 | 31647 ft | 499 kts | 135° |
| 2026-05-05 07:43 | 38.32871 | 25.80837 | 30846 ft | 498 kts | 136° |
| 2026-05-05 07:43 | 38.30430 | 25.83927 | 30213 ft | 492 kts | 136° |
| 2026-05-05 07:43 | 38.28016 | 25.86988 | 29486 ft | 487 kts | 136° |
| 2026-05-05 07:43 | 38.25633 | 25.90007 | 28728 ft | 481 kts | 136° |
| 2026-05-05 07:44 | 38.23204 | 25.92977 | 27447 ft | 488 kts | 138° |
| 2026-05-05 07:44 | 38.20679 | 25.95860 | 26521 ft | 486 kts | 140° |
| 2026-05-05 07:44 | 38.18121 | 25.98647 | 25718 ft | 482 kts | 140° |
| 2026-05-05 07:44 | 38.15566 | 26.01372 | 24961 ft | 478 kts | 141° |
| 2026-05-05 07:45 | 38.13037 | 26.04083 | 24243 ft | 474 kts | 140° |
| 2026-05-05 07:45 | 38.10579 | 26.06756 | 23527 ft | 470 kts | 140° |
| 2026-05-05 07:45 | 38.08124 | 26.09454 | 22759 ft | 465 kts | 139° |
| 2026-05-05 07:45 | 38.05693 | 26.12137 | 22039 ft | 460 kts | 139° |
| 2026-05-05 07:46 | 38.03292 | 26.14787 | 21349 ft | 456 kts | 139° |
| 2026-05-05 07:46 | 38.00907 | 26.17408 | 20686 ft | 452 kts | 139° |
| 2026-05-05 07:46 | 37.98539 | 26.19999 | 20029 ft | 448 kts | 139° |
| 2026-05-05 07:46 | 37.96188 | 26.22563 | 19388 ft | 444 kts | 139° |
| 2026-05-05 07:47 | 37.93859 | 26.25095 | 18766 ft | 440 kts | 139° |
| 2026-05-05 07:47 | 37.91543 | 26.27608 | 18107 ft | 437 kts | 139° |
| 2026-05-05 07:47 | 37.89240 | 26.30103 | 17408 ft | 434 kts | 139° |
| 2026-05-05 07:47 | 37.86988 | 26.32546 | 16765 ft | 431 kts | 139° |
| 2026-05-05 07:48 | 37.84724 | 26.35003 | 16140 ft | 427 kts | 138° |
| 2026-05-05 07:48 | 37.82478 | 26.37443 | 15521 ft | 424 kts | 138° |
| 2026-05-05 07:48 | 37.80251 | 26.39862 | 14926 ft | 420 kts | 137° |
| 2026-05-05 07:48 | 37.78038 | 26.42262 | 14346 ft | 418 kts | 137° |
| 2026-05-05 07:49 | 37.75841 | 26.44641 | 13756 ft | 415 kts | 137° |
| 2026-05-05 07:49 | 37.73654 | 26.47005 | 13132 ft | 411 kts | 137° |
| 2026-05-05 07:49 | 37.71492 | 26.49340 | 12527 ft | 407 kts | 137° |
| 2026-05-05 07:49 | 37.69351 | 26.51651 | 11935 ft | 403 kts | 136° |
| 2026-05-05 07:50 | 37.67258 | 26.53902 | 11353 ft | 399 kts | 136° |
| 2026-05-05 07:50 | 37.65160 | 26.56158 | 10878 ft | 392 kts | 136° |
| 2026-05-05 07:50 | 37.63150 | 26.58314 | 10746 ft | 365 kts | 136° |
| 2026-05-05 07:50 | 37.61291 | 26.60306 | 10621 ft | 337 kts | 135° |
| 2026-05-05 07:51 | 37.59562 | 26.62160 | 10380 ft | 318 kts | 135° |
| 2026-05-05 07:51 | 37.57901 | 26.63946 | 9864 ft | 311 kts | 135° |
| 2026-05-05 07:51 | 37.56268 | 26.65704 | 9237 ft | 307 kts | 135° |
| 2026-05-05 07:51 | 37.54658 | 26.67439 | 8591 ft | 303 kts | 134° |
| 2026-05-05 07:52 | 37.53066 | 26.69155 | 7951 ft | 299 kts | 134° |
| 2026-05-05 07:52 | 37.51524 | 26.70832 | 7326 ft | 294 kts | 131° |
| 2026-05-05 07:52 | 37.50163 | 26.72700 | 6715 ft | 285 kts | 121° |
| 2026-05-05 07:52 | 37.49039 | 26.74725 | 6069 ft | 279 kts | 116° |
| 2026-05-05 07:53 | 37.48072 | 26.76816 | 5418 ft | 274 kts | 112° |
| 2026-05-05 07:53 | 37.47258 | 26.78943 | 4883 ft | 265 kts | 108° |
| 2026-05-05 07:53 | 37.46600 | 26.81063 | 4357 ft | 256 kts | 104° |
| 2026-05-05 07:53 | 37.46091 | 26.83165 | 3924 ft | 245 kts | 100° |
| 2026-05-05 07:54 | 37.45809 | 26.85205 | 3672 ft | 231 kts | 84° |
| 2026-05-05 07:54 | 37.46150 | 26.87094 | 3441 ft | 222 kts | 60° |
| 2026-05-05 07:54 | 37.47055 | 26.88599 | 3185 ft | 213 kts | 37° |
| 2026-05-05 07:54 | 37.48308 | 26.89494 | 3036 ft | 202 kts | 15° |
| 2026-05-05 07:55 | 37.49647 | 26.89737 | 3019 ft | 188 kts | 1° |
| 2026-05-05 07:55 | 37.50892 | 26.89801 | 3032 ft | 172 kts | 1° |
| 2026-05-05 07:55 | 37.52063 | 26.89870 | 3018 ft | 166 kts | 1° |
| 2026-05-05 07:55 | 37.53207 | 26.89938 | 2918 ft | 165 kts | 2° |
| 2026-05-05 07:56 | 37.54348 | 26.90004 | 2660 ft | 164 kts | 1° |
| 2026-05-05 07:56 | 37.55495 | 26.90071 | 2334 ft | 166 kts | 1° |
| 2026-05-05 07:56 | 37.56606 | 26.90136 | 2084 ft | 156 kts | 1° |
| 2026-05-05 07:56 | 37.57650 | 26.90207 | 1893 ft | 145 kts | 1° |
| 2026-05-05 07:57 | 37.58610 | 26.90277 | 1810 ft | 134 kts | 1° |
| 2026-05-05 07:57 | 37.59534 | 26.90330 | 1773 ft | 132 kts | 360° |
| 2026-05-05 07:57 | 37.60453 | 26.90362 | 1754 ft | 132 kts | 359° |
| 2026-05-05 07:57 | 37.61366 | 26.90377 | 1739 ft | 131 kts | 358° |
| 2026-05-05 07:58 | 37.62271 | 26.90250 | 1692 ft | 131 kts | 343° |
| 2026-05-05 07:58 | 37.63090 | 26.89756 | 1567 ft | 131 kts | 326° |
| 2026-05-05 07:58 | 37.63854 | 26.89154 | 1435 ft | 132 kts | 331° |
| 2026-05-05 07:58 | 37.64649 | 26.88586 | 1262 ft | 131 kts | 330° |
| 2026-05-05 07:59 | 37.65444 | 26.88013 | 1103 ft | 132 kts | 330° |
| 2026-05-05 07:59 | 37.66241 | 26.87429 | 917 ft | 132 kts | 329° |
| 2026-05-05 07:59 | 37.67070 | 26.86934 | 735 ft | 133 kts | 347° |
| 2026-05-05 07:59 | 37.67979 | 26.86977 | 699 ft | 133 kts | 14° |
| 2026-05-05 08:00 | 37.68778 | 26.87558 | 587 ft | 136 kts | 44° |
| 2026-05-05 08:00 | 37.69104 | 26.88646 | 388 ft | 140 kts | 92° |
| 2026-05-05 08:00 | 37.68998 | 26.89855 | 122 ft | 140 kts | 89° |
| 2026-05-05 08:00 | 37.68930 | 26.91029 | 29 ft | 115 kts | 94° |
| 2026-05-05 08:01 | 37.68891 | 26.91667 | 29 ft | 32 kts | 94° |
| 2026-05-05 08:01 | 37.68868 | 26.91848 | 29 ft | 7 kts | 124° |
| 2026-05-05 08:01 | 37.68880 | 26.91868 | 24 ft | 3 kts | 334° |
| 2026-05-05 08:01 | 37.68883 | 26.91787 | 29 ft | 13 kts | 271° |
| 2026-05-05 08:02 | 37.68935 | 26.91692 | 29 ft | 14 kts | 342° |
| 2026-05-05 08:02 | 37.68989 | 26.91611 | 29 ft | 14 kts | 279° |
| 2026-05-05 08:02 | 37.69007 | 26.91491 | 29 ft | 13 kts | 276° |
| 2026-05-05 08:02 | 37.69006 | 26.91423 | 29 ft | 5 kts | 316° |
| 2026-05-05 08:03 | 37.69041 | 26.91427 | 29 ft | 6 kts | 5° |
| 2026-05-05 08:03 | 37.69052 | 26.91428 | 29 ft | 0 kts | 5° |